createdAt,value
2022-09-20T00:01:28.676Z,97463.00
2022-09-20T00:03:58.364Z,97458.00
2022-09-20T00:06:31.122Z,97467.00
2022-09-20T00:08:59.496Z,97466.00
2022-09-20T00:11:29.023Z,97467.00
2022-09-20T00:13:57.310Z,97466.00
2022-09-20T00:16:26.968Z,97465.00
2022-09-20T00:18:56.166Z,97466.00
2022-09-20T00:21:25.782Z,97464.00
2022-09-20T00:23:53.851Z,97461.00
2022-09-20T00:26:21.775Z,97464.00
2022-09-20T00:28:48.912Z,97456.00
2022-09-20T00:31:16.403Z,97460.00
2022-09-20T00:34:02.075Z,97450.00
2022-09-20T00:36:29.326Z,97458.00
2022-09-20T00:39:01.429Z,97459.00
2022-09-20T00:41:30.570Z,97457.00
2022-09-20T00:43:58.583Z,97450.00
2022-09-20T00:46:45.334Z,97450.00
2022-09-20T00:49:26.517Z,97453.00
2022-09-20T00:51:57.830Z,97456.00
2022-09-20T00:54:24.901Z,97458.00
2022-09-20T00:56:52.335Z,97449.00
2022-09-20T00:59:32.173Z,97452.00
2022-09-20T01:02:05.441Z,97456.00
2022-09-20T01:07:34.878Z,97449.00
2022-09-20T01:10:33.209Z,97455.00
2022-09-20T01:13:00.610Z,97459.00
2022-09-20T01:15:29.581Z,97455.00
2022-09-20T01:17:59.173Z,97460.00
2022-09-20T01:20:31.957Z,97455.00
2022-09-20T01:22:59.090Z,97458.00
2022-09-20T01:26:11.225Z,97456.00
2022-09-20T01:28:39.214Z,97446.00
2022-09-20T01:31:15.968Z,97448.00
2022-09-20T01:33:58.670Z,97454.00
2022-09-20T01:36:37.960Z,97456.00
2022-09-20T01:39:27.191Z,97460.00
2022-09-20T01:42:06.614Z,97457.00
2022-09-20T01:44:52.979Z,97450.00
2022-09-20T01:47:59.247Z,97455.00
2022-09-20T01:50:44.124Z,97444.00
2022-09-20T01:53:38.734Z,97447.00
2022-09-20T01:56:24.394Z,97443.00
2022-09-20T01:59:22.098Z,97440.00
2022-09-20T02:02:20.590Z,97449.00
2022-09-20T02:05:04.812Z,97440.00
2022-09-20T02:07:56.734Z,97440.00
2022-09-20T02:11:01.743Z,97442.00
2022-09-20T02:17:17.094Z,97451.00
2022-09-20T02:23:53.255Z,97449.00
2022-09-20T02:26:44.192Z,97449.00
2022-09-20T02:29:41.314Z,97444.00
2022-09-20T02:32:13.541Z,97448.00
2022-09-20T02:35:06.197Z,97445.00
2022-09-20T02:37:54.945Z,97444.00
2022-09-20T02:40:43.755Z,97446.00
2022-09-20T02:43:53.322Z,97442.00
2022-09-20T02:46:38.825Z,97453.00
2022-09-20T02:49:46.042Z,97446.00
2022-09-20T02:52:59.015Z,97438.00
2022-09-20T02:55:42.177Z,97439.00
2022-09-20T02:58:43.722Z,97443.00
2022-09-20T03:01:46.568Z,97434.00
2022-09-20T03:04:35.786Z,97443.00
2022-09-20T03:07:12.729Z,97442.00
2022-09-20T03:09:55.043Z,97445.00
2022-09-20T03:12:43.236Z,97443.00
2022-09-20T03:15:47.999Z,97440.00
2022-09-20T03:18:38.795Z,97438.00
2022-09-20T03:21:27.986Z,97444.00
2022-09-20T03:24:24.846Z,97445.00
2022-09-20T03:27:07.442Z,97450.00
2022-09-20T03:29:55.685Z,97448.00
2022-09-20T03:32:41.335Z,97444.00
2022-09-20T03:35:36.337Z,97448.00
2022-09-20T03:38:15.573Z,97450.00
2022-09-20T03:40:57.341Z,97449.00
2022-09-20T03:43:48.174Z,97455.00
2022-09-20T03:46:21.829Z,97459.00
2022-09-20T03:49:19.609Z,97464.00
2022-09-20T03:51:49.949Z,97463.00
2022-09-20T03:54:17.715Z,97459.00
2022-09-20T03:57:21.394Z,97465.00
2022-09-20T03:59:51.311Z,97466.00
2022-09-20T04:02:38.995Z,97469.00
2022-09-20T04:05:12.941Z,97466.00
2022-09-20T04:07:52.074Z,97473.00
2022-09-20T04:10:38.033Z,97457.00
2022-09-20T04:13:44.443Z,97459.00
2022-09-20T04:16:36.521Z,97460.00
2022-09-20T04:19:24.364Z,97463.00
2022-09-20T04:21:57.936Z,97460.00
2022-09-20T04:24:35.564Z,97467.00
2022-09-20T04:27:09.858Z,97462.00
2022-09-20T04:30:04.141Z,97458.00
2022-09-20T04:32:49.733Z,97466.00
2022-09-20T04:35:54.627Z,97471.00
2022-09-20T04:38:22.432Z,97472.00
2022-09-20T04:41:06.235Z,97467.00
2022-09-20T04:44:04.852Z,97467.00
2022-09-20T04:46:53.947Z,97478.00
2022-09-20T04:49:44.555Z,97478.00
2022-09-20T04:52:40.789Z,97476.00
2022-09-20T04:55:26.872Z,97482.00
2022-09-20T04:58:09.551Z,97483.00
2022-09-20T05:01:17.623Z,97482.00
2022-09-20T05:03:59.950Z,97479.00
2022-09-20T05:06:34.729Z,97485.00
2022-09-20T05:09:16.779Z,97485.00
2022-09-20T05:11:52.872Z,97488.00
2022-09-20T05:14:38.722Z,97485.00
2022-09-20T05:17:15.807Z,97494.00
2022-09-20T05:20:02.601Z,97489.00
2022-09-20T05:22:57.457Z,97493.00
2022-09-20T05:25:52.007Z,97486.00
2022-09-20T05:28:29.273Z,97488.00
2022-09-20T05:31:01.533Z,97489.00
2022-09-20T05:33:40.564Z,97496.00
2022-09-20T05:36:34.197Z,97505.00
2022-09-20T05:39:11.765Z,97496.00
2022-09-20T05:41:44.471Z,97509.00
2022-09-20T05:44:47.005Z,97499.00
2022-09-20T05:47:35.131Z,97502.00
2022-09-20T05:50:18.198Z,97517.00
2022-09-20T05:52:58.429Z,97521.00
2022-09-20T05:55:54.389Z,97517.00
2022-09-20T05:58:34.727Z,97518.00
2022-09-20T06:01:13.429Z,97517.00
2022-09-20T06:03:54.427Z,97519.00
2022-09-20T06:06:53.967Z,97527.00
2022-09-20T06:09:25.715Z,97510.00
2022-09-20T06:12:27.107Z,97516.00
2022-09-20T06:15:02.607Z,97519.00
2022-09-20T06:17:41.071Z,97515.00
2022-09-20T06:20:11.372Z,97514.00
2022-09-20T06:22:57.246Z,97513.00
2022-09-20T06:25:29.828Z,97515.00
2022-09-20T06:28:07.793Z,97517.00
2022-09-20T06:30:49.203Z,97520.00
2022-09-20T06:33:18.544Z,97518.00
2022-09-20T06:35:59.042Z,97518.00
2022-09-20T06:38:45.083Z,97518.00
2022-09-20T06:41:28.560Z,97520.00
2022-09-20T06:44:00.059Z,97521.00
2022-09-20T06:46:28.970Z,97516.00
2022-09-20T06:48:56.967Z,97520.00
2022-09-20T06:51:25.816Z,97526.00
2022-09-20T06:53:53.845Z,97525.00
2022-09-20T06:56:25.066Z,97521.00
2022-09-20T06:58:52.710Z,97524.00
2022-09-20T07:01:29.556Z,97524.00
2022-09-20T07:03:58.822Z,97515.00
2022-09-20T07:06:26.732Z,97526.00
2022-09-20T07:08:53.893Z,97519.00
2022-09-20T07:11:23.142Z,97520.00
2022-09-20T07:13:55.219Z,97520.00
2022-09-20T07:16:22.689Z,97520.00
2022-09-20T07:18:52.245Z,97518.00
2022-09-20T07:21:20.593Z,97517.00
2022-09-20T07:23:48.600Z,97520.00
2022-09-20T07:26:28.308Z,97513.00
2022-09-20T07:28:56.259Z,97509.00
2022-09-20T07:31:25.016Z,97514.00
2022-09-20T07:33:52.379Z,97517.00
2022-09-20T07:36:20.244Z,97524.00
2022-09-20T07:38:50.079Z,97531.00
2022-09-20T07:41:22.727Z,97524.00
2022-09-20T07:43:50.983Z,97530.00
2022-09-20T07:46:24.092Z,97536.00
2022-09-20T07:48:51.345Z,97533.00
2022-09-20T07:51:18.578Z,97536.00
2022-09-20T07:53:45.721Z,97535.00
2022-09-20T07:56:13.890Z,97533.00
2022-09-20T07:58:42.028Z,97533.00
2022-09-20T08:01:12.526Z,97540.00
2022-09-20T08:03:40.422Z,97540.00
2022-09-20T08:06:11.607Z,97541.00
2022-09-20T08:08:39.956Z,97537.00
2022-09-20T08:11:18.721Z,97540.00
2022-09-20T08:16:43.998Z,97553.00
2022-09-20T08:19:17.732Z,97554.00
2022-09-20T08:21:45.077Z,97556.00
2022-09-20T08:24:12.910Z,97553.00
2022-09-20T08:26:40.047Z,97552.00
2022-09-20T08:29:07.975Z,97552.00
2022-09-20T08:31:38.169Z,97553.00
2022-09-20T08:34:06.953Z,97559.00
2022-09-20T08:36:37.036Z,97553.00
2022-09-20T08:42:33.337Z,97553.00
2022-09-20T08:45:05.040Z,97551.00
2022-09-20T08:47:44.269Z,97550.00
2022-09-20T08:50:17.675Z,97557.00
2022-09-20T08:52:48.425Z,97559.00
2022-09-20T08:55:16.733Z,97558.00
2022-09-20T08:57:44.731Z,97563.00
2022-09-20T09:00:18.454Z,97569.00
2022-09-20T09:02:45.816Z,97565.00
2022-09-20T09:05:40.587Z,97564.00
2022-09-20T09:08:21.284Z,97567.00
2022-09-20T09:10:58.004Z,97560.00
2022-09-20T09:13:30.214Z,97556.00
2022-09-20T09:16:05.662Z,97564.00
2022-09-20T09:18:44.154Z,97562.00
2022-09-20T09:21:22.496Z,97557.00
2022-09-20T09:24:04.187Z,97556.00
2022-09-20T09:26:43.316Z,97554.00
2022-09-20T09:29:13.192Z,97554.00
2022-09-20T09:31:40.431Z,97554.00
2022-09-20T09:34:28.196Z,97554.00
2022-09-20T09:36:55.949Z,97546.00
2022-09-20T09:39:30.249Z,97551.00
2022-09-20T09:42:00.877Z,97549.00
2022-09-20T09:44:30.547Z,97554.00
2022-09-20T09:46:58.273Z,97554.00
2022-09-20T09:49:31.060Z,97549.00
2022-09-20T09:52:01.705Z,97543.00
2022-09-20T09:54:40.530Z,97536.00
2022-09-20T09:57:24.114Z,97548.00
2022-09-20T09:59:57.650Z,97549.00
2022-09-20T10:02:48.026Z,97550.00
2022-09-20T10:05:42.918Z,97541.00
2022-09-20T10:08:28.863Z,97536.00
2022-09-20T10:11:07.929Z,97544.00
2022-09-20T10:13:56.693Z,97534.00
2022-09-20T10:16:29.723Z,97545.00
2022-09-20T10:19:15.090Z,97539.00
2022-09-20T10:22:04.774Z,97542.00
2022-09-20T10:24:55.085Z,97539.00
2022-09-20T10:27:50.097Z,97550.00
2022-09-20T10:30:25.909Z,97538.00
2022-09-20T10:33:10.853Z,97537.00
2022-09-20T10:35:55.770Z,97537.00
2022-09-20T10:38:27.930Z,97534.00
2022-09-20T10:41:28.821Z,97533.00
2022-09-20T10:44:04.295Z,97543.00
2022-09-20T10:46:33.313Z,97543.00
2022-09-20T10:49:28.789Z,97537.00
2022-09-20T10:52:06.369Z,97533.00
2022-09-20T10:54:52.018Z,97537.00
2022-09-20T10:57:50.119Z,97535.00
2022-09-20T11:01:04.918Z,97537.00
2022-09-20T11:03:56.267Z,97532.00
2022-09-20T11:06:23.343Z,97535.00
2022-09-20T11:08:55.683Z,97533.00
2022-09-20T11:11:27.091Z,97530.00
2022-09-20T11:14:06.845Z,97533.00
2022-09-20T11:16:39.300Z,97529.00
2022-09-20T11:19:23.373Z,97533.00
2022-09-20T11:21:54.270Z,97534.00
2022-09-20T11:24:40.875Z,97544.00
2022-09-20T11:27:21.634Z,97543.00
2022-09-20T11:29:58.335Z,97546.00
2022-09-20T11:32:32.842Z,97546.00
2022-09-20T11:35:11.464Z,97542.00
2022-09-20T11:37:43.515Z,97543.00
2022-09-20T11:40:29.929Z,97542.00
2022-09-20T11:43:01.141Z,97544.00
2022-09-20T11:45:30.592Z,97549.00
2022-09-20T11:48:30.715Z,97553.00
2022-09-20T11:51:22.991Z,97556.00
2022-09-20T11:54:34.173Z,97550.00
2022-09-20T11:57:06.004Z,97540.00
2022-09-20T11:59:43.763Z,97548.00
2022-09-20T12:02:52.350Z,97540.00
2022-09-20T12:05:42.559Z,97546.00
2022-09-20T12:08:40.814Z,97539.00
2022-09-20T12:11:41.367Z,97535.00
2022-09-20T12:14:45.517Z,97526.00
2022-09-20T12:17:52.858Z,97528.00
2022-09-20T12:20:51.470Z,97529.00
2022-09-20T12:24:02.886Z,97521.00
2022-09-20T12:26:42.223Z,97530.00
2022-09-20T12:30:16.290Z,97524.00
2022-09-20T12:33:42.557Z,97524.00
2022-09-20T12:36:15.937Z,97515.00
2022-09-20T12:38:48.142Z,97517.00
2022-09-20T12:41:27.760Z,97502.00
2022-09-20T12:43:59.974Z,97505.00
2022-09-20T12:46:56.423Z,97499.00
2022-09-20T12:49:48.201Z,97503.00
2022-09-20T12:52:44.340Z,97512.00
2022-09-20T12:55:31.035Z,97499.00
2022-09-20T12:58:02.113Z,97505.00
2022-09-20T13:00:40.507Z,97498.00
2022-09-20T13:03:29.475Z,97504.00
2022-09-20T13:06:15.674Z,97495.00
2022-09-20T13:09:08.532Z,97495.00
2022-09-20T13:11:41.503Z,97498.00
2022-09-20T13:14:08.595Z,97494.00
2022-09-20T13:17:04.314Z,97495.00
2022-09-20T13:19:38.954Z,97488.00
2022-09-20T13:22:32.951Z,97492.00
2022-09-20T13:25:02.779Z,97485.00
2022-09-20T13:27:36.251Z,97485.00
2022-09-20T13:30:32.611Z,97491.00
2022-09-20T13:33:19.209Z,97490.00
2022-09-20T13:35:48.231Z,97492.00
2022-09-20T13:38:25.006Z,97495.00
2022-09-20T13:40:54.194Z,97495.00
2022-09-20T13:43:35.829Z,97496.00
2022-09-20T13:46:23.674Z,97491.00
2022-09-20T13:48:59.438Z,97492.00
2022-09-20T13:51:28.312Z,97495.00
2022-09-20T13:54:22.083Z,97501.00
2022-09-20T13:56:50.001Z,97493.00
2022-09-20T13:59:19.337Z,97499.00
2022-09-20T14:01:51.693Z,97502.00
2022-09-20T14:04:24.342Z,97487.00
2022-09-20T14:06:53.639Z,97491.00
2022-09-20T14:09:28.746Z,97492.00
2022-09-20T14:11:57.238Z,97493.00
2022-09-20T14:14:24.958Z,97497.00
2022-09-20T14:16:54.589Z,97497.00
2022-09-20T14:19:26.270Z,97501.00
2022-09-20T14:21:53.730Z,97501.00
2022-09-20T14:24:27.495Z,97514.00
2022-09-20T14:27:21.707Z,97511.00
2022-09-20T14:29:53.150Z,97517.00
2022-09-20T14:32:20.297Z,97518.00
2022-09-20T14:34:56.518Z,97529.00
2022-09-20T14:37:33.068Z,97522.00
2022-09-20T14:40:03.007Z,97522.00
2022-09-20T14:42:42.733Z,97520.00
2022-09-20T14:45:31.311Z,97517.00
2022-09-20T14:48:11.158Z,97523.00
2022-09-20T14:51:12.625Z,97522.00
2022-09-20T14:53:39.809Z,97516.00
2022-09-20T14:56:06.963Z,97519.00
2022-09-20T14:58:55.084Z,97512.00
2022-09-20T15:01:26.657Z,97523.00
2022-09-20T15:03:53.873Z,97525.00
2022-09-20T15:06:21.018Z,97522.00
2022-09-20T15:08:48.179Z,97522.00
2022-09-20T15:11:19.038Z,97524.00
2022-09-20T15:13:46.399Z,97517.00
2022-09-20T15:16:14.727Z,97515.00
2022-09-20T15:18:43.293Z,97510.00
2022-09-20T15:21:13.294Z,97524.00
2022-09-20T15:23:40.913Z,97512.00
2022-09-20T15:26:09.851Z,97510.00
2022-09-20T15:28:36.998Z,97514.00
2022-09-20T15:31:04.323Z,97512.00
2022-09-20T15:33:32.358Z,97514.00
2022-09-20T15:36:01.159Z,97517.00
2022-09-20T15:38:28.449Z,97512.00
2022-09-20T15:40:55.671Z,97517.00
2022-09-20T15:43:26.619Z,97513.00
2022-09-20T15:45:56.073Z,97515.00
2022-09-20T15:48:25.515Z,97517.00
2022-09-20T15:51:06.636Z,97515.00
2022-09-20T15:53:39.380Z,97515.00
2022-09-20T15:56:19.248Z,97519.00
2022-09-20T15:58:48.301Z,97516.00
2022-09-20T16:01:18.757Z,97524.00
2022-09-20T16:03:46.858Z,97523.00
2022-09-20T16:06:14.307Z,97523.00
2022-09-20T16:08:42.673Z,97525.00
2022-09-20T16:11:13.626Z,97520.00
2022-09-20T16:13:40.814Z,97522.00
2022-09-20T16:16:09.976Z,97530.00
2022-09-20T16:18:56.254Z,97524.00
2022-09-20T16:21:24.105Z,97524.00
2022-09-20T16:23:53.867Z,97533.00
2022-09-20T16:26:23.278Z,97524.00
2022-09-20T16:28:50.732Z,97530.00
2022-09-20T16:31:30.515Z,97529.00
2022-09-20T16:33:58.531Z,97531.00
2022-09-20T16:36:27.607Z,97540.00
2022-09-20T16:38:58.461Z,97537.00
2022-09-20T16:41:28.463Z,97534.00
2022-09-20T16:43:56.139Z,97538.00
2022-09-20T16:46:27.353Z,97541.00
2022-09-20T16:48:55.020Z,97539.00
2022-09-20T16:51:26.003Z,97544.00
2022-09-20T16:53:54.793Z,97540.00
2022-09-20T16:56:22.803Z,97541.00
2022-09-20T16:58:50.322Z,97543.00
2022-09-20T17:01:20.374Z,97539.00
2022-09-20T17:03:47.979Z,97536.00
2022-09-20T17:06:16.199Z,97539.00
2022-09-20T17:08:46.724Z,97533.00
2022-09-20T17:11:16.326Z,97542.00
2022-09-20T17:13:45.223Z,97545.00
2022-09-20T17:16:14.336Z,97548.00
2022-09-20T17:18:43.146Z,97549.00
2022-09-20T17:21:13.843Z,97551.00
2022-09-20T17:23:50.631Z,97543.00
2022-09-20T17:26:36.774Z,97557.00
2022-09-20T17:29:06.610Z,97556.00
2022-09-20T17:31:53.201Z,97561.00
2022-09-20T17:34:21.887Z,97569.00
2022-09-20T17:36:50.686Z,97573.00
2022-09-20T17:39:18.116Z,97571.00
2022-09-20T17:41:49.363Z,97570.00
2022-09-20T17:44:16.628Z,97573.00
2022-09-20T17:46:45.985Z,97580.00
2022-09-20T17:49:15.487Z,97581.00
2022-09-20T17:51:48.472Z,97587.00
2022-09-20T17:54:15.928Z,97584.00
2022-09-20T17:56:46.154Z,97595.00
2022-09-20T17:59:16.064Z,97594.00
2022-09-20T18:01:44.724Z,97598.00
2022-09-20T18:04:12.431Z,97603.00
2022-09-20T18:06:45.920Z,97594.00
2022-09-20T18:09:16.013Z,97601.00
2022-09-20T18:11:49.305Z,97610.00
2022-09-20T18:14:18.490Z,97607.00
2022-09-20T18:16:46.505Z,97621.00
2022-09-20T18:19:15.854Z,97618.00
2022-09-20T18:21:43.195Z,97613.00
2022-09-20T18:24:11.388Z,97620.00
2022-09-20T18:26:39.328Z,97613.00
2022-09-20T18:29:09.962Z,97615.00
2022-09-20T18:31:42.910Z,97625.00
2022-09-20T18:34:18.414Z,97616.00
2022-09-20T18:36:52.856Z,97617.00
2022-09-20T18:39:21.799Z,97613.00
2022-09-20T18:41:50.280Z,97619.00
2022-09-20T18:44:20.467Z,97613.00
2022-09-20T18:46:48.147Z,97622.00
2022-09-20T18:49:16.827Z,97609.00
2022-09-20T18:51:44.691Z,97626.00
2022-09-20T18:54:12.162Z,97623.00
2022-09-20T18:56:41.299Z,97626.00
2022-09-20T18:59:13.388Z,97629.00
2022-09-20T19:01:55.864Z,97628.00
2022-09-20T19:04:45.811Z,97630.00
2022-09-20T19:07:32.823Z,97625.00
2022-09-20T19:10:06.110Z,97633.00
2022-09-20T19:12:54.282Z,97629.00
2022-09-20T19:15:43.976Z,97636.00
2022-09-20T19:18:36.354Z,97633.00
2022-09-20T19:21:33.901Z,97643.00
2022-09-20T19:24:20.561Z,97642.00
2022-09-20T19:26:47.963Z,97644.00
2022-09-20T19:29:24.784Z,97642.00
2022-09-20T19:31:55.471Z,97651.00
2022-09-20T19:34:30.952Z,97635.00
2022-09-20T19:37:25.955Z,97647.00
2022-09-20T19:40:32.824Z,97648.00
2022-09-20T19:43:15.473Z,97643.00
2022-09-20T19:46:00.204Z,97637.00
2022-09-20T19:48:30.203Z,97645.00
2022-09-20T19:50:57.946Z,97647.00
2022-09-20T19:53:27.571Z,97660.00
2022-09-20T19:55:56.366Z,97654.00
2022-09-20T19:58:23.698Z,97659.00
2022-09-20T20:00:51.743Z,97645.00
2022-09-20T20:03:19.193Z,97647.00
2022-09-20T20:06:02.399Z,97658.00
2022-09-20T20:08:48.674Z,97653.00
2022-09-20T20:11:24.677Z,97662.00
2022-09-20T20:14:03.703Z,97662.00
2022-09-20T20:16:52.275Z,97649.00
2022-09-20T20:19:40.513Z,97658.00
2022-09-20T20:22:38.062Z,97662.00
2022-09-20T20:25:07.466Z,97654.00
2022-09-20T20:27:34.664Z,97656.00
2022-09-20T20:30:01.796Z,97656.00
2022-09-20T20:32:28.942Z,97649.00
2022-09-20T20:34:56.074Z,97649.00
2022-09-20T20:37:24.334Z,97648.00
2022-09-20T20:39:52.080Z,97655.00
2022-09-20T20:42:19.547Z,97646.00
2022-09-20T20:44:47.742Z,97653.00
2022-09-20T20:47:14.889Z,97653.00
2022-09-20T20:49:42.318Z,97652.00
2022-09-20T20:52:09.587Z,97657.00
2022-09-20T20:54:37.196Z,97655.00
2022-09-20T20:57:04.479Z,97657.00
2022-09-20T20:59:31.617Z,97655.00
2022-09-20T21:01:59.274Z,97661.00
2022-09-20T21:04:28.376Z,97656.00
2022-09-20T21:06:55.571Z,97664.00
2022-09-20T21:09:22.729Z,97661.00
2022-09-20T21:11:49.856Z,97656.00
2022-09-20T21:14:17.006Z,97662.00
2022-09-20T21:16:44.991Z,97657.00
2022-09-20T21:19:18.090Z,97663.00
2022-09-20T21:21:47.713Z,97666.00
2022-09-20T21:24:17.126Z,97665.00
2022-09-20T21:26:45.596Z,97659.00
2022-09-20T21:29:14.380Z,97659.00
2022-09-20T21:31:45.075Z,97660.00
2022-09-20T21:34:13.466Z,97660.00
2022-09-20T21:36:44.540Z,97659.00
2022-09-20T21:39:12.013Z,97659.00
2022-09-20T21:41:39.898Z,97658.00
2022-09-20T21:44:08.272Z,97658.00
2022-09-20T21:46:38.473Z,97656.00
2022-09-20T21:49:08.422Z,97657.00
2022-09-20T21:51:36.195Z,97662.00
2022-09-20T21:54:04.292Z,97667.00
2022-09-20T21:56:33.653Z,97652.00
2022-09-20T21:59:03.730Z,97664.00
2022-09-20T22:01:34.531Z,97658.00
2022-09-20T22:04:05.725Z,97657.00
2022-09-20T22:06:38.594Z,97657.00
2022-09-20T22:09:11.233Z,97655.00
2022-09-20T22:11:40.982Z,97659.00
2022-09-20T22:14:09.425Z,97649.00
2022-09-20T22:16:39.700Z,97649.00
2022-09-20T22:19:08.472Z,97655.00
2022-09-20T22:21:41.244Z,97651.00
2022-09-20T22:24:10.451Z,97654.00
2022-09-20T22:26:39.867Z,97648.00
2022-09-20T22:29:07.779Z,97644.00
2022-09-20T22:31:37.235Z,97650.00
2022-09-20T22:34:06.387Z,97647.00
2022-09-20T22:36:35.785Z,97645.00
2022-09-20T22:39:04.193Z,97650.00
2022-09-20T22:41:31.704Z,97636.00
2022-09-20T22:43:58.853Z,97639.00
2022-09-20T22:46:28.177Z,97646.00
2022-09-20T22:48:55.425Z,97651.00
2022-09-20T22:51:31.336Z,97641.00
2022-09-20T22:53:58.720Z,97641.00
2022-09-20T22:56:31.151Z,97640.00
2022-09-20T22:59:00.537Z,97636.00
2022-09-20T23:01:29.878Z,97637.00
2022-09-20T23:04:07.614Z,97642.00
2022-09-20T23:06:38.206Z,97642.00
2022-09-20T23:09:07.904Z,97640.00
2022-09-20T23:11:35.696Z,97640.00
2022-09-20T23:14:06.981Z,97642.00
2022-09-20T23:16:35.632Z,97640.00
2022-09-20T23:19:03.929Z,97639.00
2022-09-20T23:21:31.544Z,97636.00
2022-09-20T23:24:01.168Z,97641.00
2022-09-20T23:26:30.475Z,97639.00
2022-09-20T23:29:00.402Z,97639.00
2022-09-20T23:31:28.916Z,97638.00
2022-09-20T23:34:01.042Z,97640.00
2022-09-20T23:36:30.377Z,97639.00
2022-09-20T23:38:57.686Z,97636.00
2022-09-20T23:41:26.677Z,97643.00
2022-09-20T23:43:54.356Z,97638.00
2022-09-20T23:46:23.168Z,97640.00
2022-09-20T23:48:50.894Z,97625.00
2022-09-20T23:51:22.380Z,97634.00
2022-09-20T23:53:50.744Z,97629.00
2022-09-20T23:56:18.253Z,97642.00
2022-09-20T23:58:45.857Z,97631.00
